sensor_id;sensor_type;location;lat;lon;timestamp;temperature;humidity
16674;DHT22;8450;52.654;10.326;2023-07-02T06:05:17;15.50;99.90
16674;DHT22;8450;52.654;10.326;2023-07-02T06:07:43;15.60;99.90
16674;DHT22;8450;52.654;10.326;2023-07-02T06:10:09;15.70;99.90
16674;DHT22;8450;52.654;10.326;2023-07-02T06:12:34;15.80;99.90
16674;DHT22;8450;52.654;10.326;2023-07-02T06:15:00;15.90;99.90
16674;DHT22;8450;52.654;10.326;2023-07-02T06:17:26;16.00;99.90
16674;DHT22;8450;52.654;10.326;2023-07-02T06:19:51;15.90;99.90
16674;DHT22;8450;52.654;10.326;2023-07-02T06:40:39;16.00;99.90
16674;DHT22;8450;52.654;10.326;2023-07-02T06:43:04;16.00;99.90
16674;DHT22;8450;52.654;10.326;2023-07-02T06:45:30;16.10;99.90
16674;DHT22;8450;52.654;10.326;2023-07-02T06:47:55;16.10;99.90
16674;DHT22;8450;52.654;10.326;2023-07-02T06:50:21;16.20;99.90
16674;DHT22;8450;52.654;10.326;2023-07-02T06:52:48;16.30;99.90
16674;DHT22;8450;52.654;10.326;2023-07-02T06:55:13;16.30;99.90
16674;DHT22;8450;52.654;10.326;2023-07-02T06:57:45;16.20;99.90
16674;DHT22;8450;52.654;10.326;2023-07-02T07:00:12;16.30;99.90
16674;DHT22;8450;52.654;10.326;2023-07-02T07:02:40;16.40;99.90
16674;DHT22;8450;52.654;10.326;2023-07-02T07:05:06;16.40;99.90
16674;DHT22;8450;52.654;10.326;2023-07-02T07:07:32;16.60;99.90
16674;DHT22;8450;52.654;10.326;2023-07-02T07:09:58;16.70;99.90
16674;DHT22;8450;52.654;10.326;2023-07-02T07:12:23;16.80;99.90
16674;DHT22;8450;52.654;10.326;2023-07-02T07:14:49;16.80;99.90
16674;DHT22;8450;52.654;10.326;2023-07-02T07:17:15;16.50;99.90
16674;DHT22;8450;52.654;10.326;2023-07-02T07:19:40;16.50;99.90
16674;DHT22;8450;52.654;10.326;2023-07-02T07:22:06;16.70;99.90
16674;DHT22;8450;52.654;10.326;2023-07-02T07:24:31;16.80;99.90
16674;DHT22;8450;52.654;10.326;2023-07-02T07:26:57;16.90;99.90
16674;DHT22;8450;52.654;10.326;2023-07-02T07:29:23;16.90;99.90
16674;DHT22;8450;52.654;10.326;2023-07-02T07:31:48;17.00;99.90
16674;DHT22;8450;52.654;10.326;2023-07-02T07:34:14;17.10;99.90
16674;DHT22;8450;52.654;10.326;2023-07-02T07:36:40;17.20;99.90
16674;DHT22;8450;52.654;10.326;2023-07-02T07:39:05;17.20;99.90
16674;DHT22;8450;52.654;10.326;2023-07-02T07:41:31;17.20;99.90
16674;DHT22;8450;52.654;10.326;2023-07-02T07:43:58;17.10;99.90
16674;DHT22;8450;52.654;10.326;2023-07-02T07:46:23;17.10;99.90
16674;DHT22;8450;52.654;10.326;2023-07-02T07:48:49;17.00;99.90
16674;DHT22;8450;52.654;10.326;2023-07-02T07:51:14;17.00;99.90
16674;DHT22;8450;52.654;10.326;2023-07-02T07:53:40;17.00;99.90
16674;DHT22;8450;52.654;10.326;2023-07-02T07:56:06;17.20;99.90
16674;DHT22;8450;52.654;10.326;2023-07-02T07:58:31;17.50;99.90
16674;DHT22;8450;52.654;10.326;2023-07-02T08:00:57;17.50;99.90
16674;DHT22;8450;52.654;10.326;2023-07-02T08:03:23;17.80;99.90
16674;DHT22;8450;52.654;10.326;2023-07-02T08:05:49;18.20;99.90
16674;DHT22;8450;52.654;10.326;2023-07-02T08:08:14;18.10;99.90
16674;DHT22;8450;52.654;10.326;2023-07-02T08:10:40;17.90;99.90
16674;DHT22;8450;52.654;10.326;2023-07-02T08:13:06;18.00;99.90
16674;DHT22;8450;52.654;10.326;2023-07-02T08:15:33;18.80;99.90
16674;DHT22;8450;52.654;10.326;2023-07-02T08:17:59;18.60;99.90
16674;DHT22;8450;52.654;10.326;2023-07-02T08:20:25;18.50;99.90
16674;DHT22;8450;52.654;10.326;2023-07-02T08:22:51;18.50;99.90
16674;DHT22;8450;52.654;10.326;2023-07-02T08:25:17;18.50;99.90
16674;DHT22;8450;52.654;10.326;2023-07-02T08:27:43;18.60;99.90
16674;DHT22;8450;52.654;10.326;2023-07-02T08:30:10;18.80;99.90
16674;DHT22;8450;52.654;10.326;2023-07-02T08:32:35;19.30;99.90
16674;DHT22;8450;52.654;10.326;2023-07-02T08:35:01;19.10;99.90
16674;DHT22;8450;52.654;10.326;2023-07-02T08:37:27;19.00;99.90
16674;DHT22;8450;52.654;10.326;2023-07-02T08:39:52;19.60;99.90
16674;DHT22;8450;52.654;10.326;2023-07-02T08:42:18;19.60;99.90
16674;DHT22;8450;52.654;10.326;2023-07-02T08:44:47;19.90;99.90
16674;DHT22;8450;52.654;10.326;2023-07-02T08:47:14;19.70;99.90
16674;DHT22;8450;52.654;10.326;2023-07-02T08:49:40;19.70;99.90
16674;DHT22;8450;52.654;10.326;2023-07-02T08:52:07;19.40;99.90
16674;DHT22;8450;52.654;10.326;2023-07-02T08:54:33;18.80;99.90
16674;DHT22;8450;52.654;10.326;2023-07-02T08:56:58;18.80;99.90
16674;DHT22;8450;52.654;10.326;2023-07-02T08:59:26;19.30;99.90
16674;DHT22;8450;52.654;10.326;2023-07-02T09:01:52;19.40;99.90
16674;DHT22;8450;52.654;10.326;2023-07-02T09:04:25;19.20;99.90
16674;DHT22;8450;52.654;10.326;2023-07-02T09:07:08;19.20;99.90
16674;DHT22;8450;52.654;10.326;2023-07-02T09:09:47;18.50;99.90
16674;DHT22;8450;52.654;10.326;2023-07-02T09:12:26;18.20;99.90
16674;DHT22;8450;52.654;10.326;2023-07-02T09:14:59;18.20;99.90
16674;DHT22;8450;52.654;10.326;2023-07-02T09:17:29;19.40;99.90
16674;DHT22;8450;52.654;10.326;2023-07-02T09:19:55;19.20;99.90
16674;DHT22;8450;52.654;10.326;2023-07-02T09:22:21;18.80;99.90
16674;DHT22;8450;52.654;10.326;2023-07-02T09:24:54;18.60;99.90
16674;DHT22;8450;52.654;10.326;2023-07-02T09:27:20;19.00;99.90
16674;DHT22;8450;52.654;10.326;2023-07-02T09:29:51;19.30;99.90
16674;DHT22;8450;52.654;10.326;2023-07-02T09:32:25;19.30;99.90
16674;DHT22;8450;52.654;10.326;2023-07-02T09:34:53;19.40;99.90
16674;DHT22;8450;52.654;10.326;2023-07-02T09:37:19;18.90;99.90
16674;DHT22;8450;52.654;10.326;2023-07-02T09:39:50;18.60;99.90
16674;DHT22;8450;52.654;10.326;2023-07-02T09:42:17;18.70;99.90
16674;DHT22;8450;52.654;10.326;2023-07-02T09:44:45;19.30;99.90
16674;DHT22;8450;52.654;10.326;2023-07-02T09:47:12;19.70;99.90
16674;DHT22;8450;52.654;10.326;2023-07-02T09:49:40;19.90;99.90
16674;DHT22;8450;52.654;10.326;2023-07-02T09:52:08;19.60;99.90
16674;DHT22;8450;52.654;10.326;2023-07-02T09:54:35;20.90;99.90
16674;DHT22;8450;52.654;10.326;2023-07-02T09:57:01;21.90;99.90
16674;DHT22;8450;52.654;10.326;2023-07-02T09:59:27;21.90;99.90
16674;DHT22;8450;52.654;10.326;2023-07-02T10:01:53;21.30;99.90
16674;DHT22;8450;52.654;10.326;2023-07-02T10:04:20;21.00;99.90
16674;DHT22;8450;52.654;10.326;2023-07-02T10:06:51;20.10;99.90
16674;DHT22;8450;52.654;10.326;2023-07-02T10:09:18;20.20;99.90
16674;DHT22;8450;52.654;10.326;2023-07-02T10:11:44;19.90;99.90
16674;DHT22;8450;52.654;10.326;2023-07-02T10:14:10;19.60;99.90
16674;DHT22;8450;52.654;10.326;2023-07-02T10:16:55;19.50;99.90
16674;DHT22;8450;52.654;10.326;2023-07-02T10:19:21;19.30;99.90
16674;DHT22;8450;52.654;10.326;2023-07-02T10:22:03;19.30;99.90
16674;DHT22;8450;52.654;10.326;2023-07-02T10:24:29;19.10;99.90
16674;DHT22;8450;52.654;10.326;2023-07-02T10:27:20;19.10;99.90
16674;DHT22;8450;52.654;10.326;2023-07-02T10:29:49;18.90;99.90
16674;DHT22;8450;52.654;10.326;2023-07-02T10:32:26;19.00;99.90
16674;DHT22;8450;52.654;10.326;2023-07-02T10:34:52;19.50;99.90
16674;DHT22;8450;52.654;10.326;2023-07-02T10:37:18;20.00;99.90
16674;DHT22;8450;52.654;10.326;2023-07-02T10:39:44;19.70;99.90
16674;DHT22;8450;52.654;10.326;2023-07-02T10:42:10;19.30;99.90
16674;DHT22;8450;52.654;10.326;2023-07-02T10:44:56;19.20;99.90
16674;DHT22;8450;52.654;10.326;2023-07-02T10:47:22;18.80;99.90
16674;DHT22;8450;52.654;10.326;2023-07-02T10:49:47;18.70;99.90
16674;DHT22;8450;52.654;10.326;2023-07-02T10:52:13;19.00;99.90
16674;DHT22;8450;52.654;10.326;2023-07-02T10:54:44;19.10;99.90
16674;DHT22;8450;52.654;10.326;2023-07-02T10:57:12;19.50;99.90
16674;DHT22;8450;52.654;10.326;2023-07-02T10:59:38;19.70;99.90
16674;DHT22;8450;52.654;10.326;2023-07-02T11:02:04;19.70;99.90
16674;DHT22;8450;52.654;10.326;2023-07-02T11:04:32;19.80;99.90
16674;DHT22;8450;52.654;10.326;2023-07-02T11:06:57;19.80;99.90
16674;DHT22;8450;52.654;10.326;2023-07-02T11:09:23;19.70;99.90
16674;DHT22;8450;52.654;10.326;2023-07-02T11:11:51;19.20;99.90
16674;DHT22;8450;52.654;10.326;2023-07-02T11:14:36;18.80;99.90
16674;DHT22;8450;52.654;10.326;2023-07-02T11:17:03;18.80;99.90
16674;DHT22;8450;52.654;10.326;2023-07-02T11:19:31;18.80;99.90
16674;DHT22;8450;52.654;10.326;2023-07-02T11:21:58;18.60;99.90
16674;DHT22;8450;52.654;10.326;2023-07-02T11:24:35;18.70;99.90
16674;DHT22;8450;52.654;10.326;2023-07-02T11:27:03;18.70;99.90
16674;DHT22;8450;52.654;10.326;2023-07-02T11:29:29;19.00;99.90
16674;DHT22;8450;52.654;10.326;2023-07-02T11:32:07;19.20;99.90
16674;DHT22;8450;52.654;10.326;2023-07-02T11:34:34;19.20;99.90
16674;DHT22;8450;52.654;10.326;2023-07-02T11:37:00;19.00;99.90
16674;DHT22;8450;52.654;10.326;2023-07-02T11:39:26;19.20;99.90
16674;DHT22;8450;52.654;10.326;2023-07-02T11:41:52;19.10;99.90
16674;DHT22;8450;52.654;10.326;2023-07-02T11:44:18;19.00;99.90
16674;DHT22;8450;52.654;10.326;2023-07-02T11:46:44;18.90;99.90
16674;DHT22;8450;52.654;10.326;2023-07-02T11:49:13;18.80;99.90
16674;DHT22;8450;52.654;10.326;2023-07-02T11:51:39;18.90;99.90
16674;DHT22;8450;52.654;10.326;2023-07-02T11:54:06;19.10;99.90
16674;DHT22;8450;52.654;10.326;2023-07-02T11:56:32;19.20;99.90
16674;DHT22;8450;52.654;10.326;2023-07-02T11:58:58;19.10;99.90
16674;DHT22;8450;52.654;10.326;2023-07-02T12:01:24;19.20;99.90
16674;DHT22;8450;52.654;10.326;2023-07-02T12:03:49;19.40;99.90
16674;DHT22;8450;52.654;10.326;2023-07-02T12:06:15;19.40;99.90
16674;DHT22;8450;52.654;10.326;2023-07-02T12:08:41;19.30;99.90
16674;DHT22;8450;52.654;10.326;2023-07-02T12:11:07;19.20;99.90
16674;DHT22;8450;52.654;10.326;2023-07-02T12:13:33;19.30;99.90
16674;DHT22;8450;52.654;10.326;2023-07-02T12:15:58;19.50;99.90
16674;DHT22;8450;52.654;10.326;2023-07-02T12:18:24;19.90;99.90
16674;DHT22;8450;52.654;10.326;2023-07-02T12:20:50;20.20;99.90
16674;DHT22;8450;52.654;10.326;2023-07-02T12:23:15;20.40;99.90
16674;DHT22;8450;52.654;10.326;2023-07-02T12:25:41;20.50;99.90
16674;DHT22;8450;52.654;10.326;2023-07-02T12:28:06;20.60;99.90
16674;DHT22;8450;52.654;10.326;2023-07-02T12:30:32;20.80;99.90
16674;DHT22;8450;52.654;10.326;2023-07-02T12:32:58;21.00;99.90
16674;DHT22;8450;52.654;10.326;2023-07-02T12:35:23;21.10;99.90
16674;DHT22;8450;52.654;10.326;2023-07-02T12:37:50;21.10;99.90
16674;DHT22;8450;52.654;10.326;2023-07-02T12:40:17;20.90;99.90
16674;DHT22;8450;52.654;10.326;2023-07-02T12:42:44;20.30;99.90
16674;DHT22;8450;52.654;10.326;2023-07-02T12:45:11;19.80;99.90
16674;DHT22;8450;52.654;10.326;2023-07-02T12:47:37;19.50;99.90
16674;DHT22;8450;52.654;10.326;2023-07-02T12:50:04;19.20;99.90
16674;DHT22;8450;52.654;10.326;2023-07-02T12:52:30;19.40;99.90
16674;DHT22;8450;52.654;10.326;2023-07-02T12:54:55;19.20;99.90
16674;DHT22;8450;52.654;10.326;2023-07-02T12:57:21;19.10;99.90
16674;DHT22;8450;52.654;10.326;2023-07-02T12:59:47;19.10;99.90
16674;DHT22;8450;52.654;10.326;2023-07-02T13:02:12;19.20;99.90
16674;DHT22;8450;52.654;10.326;2023-07-02T13:04:38;19.30;99.90
16674;DHT22;8450;52.654;10.326;2023-07-02T13:07:04;19.30;99.90
16674;DHT22;8450;52.654;10.326;2023-07-02T13:09:30;19.20;99.90
16674;DHT22;8450;52.654;10.326;2023-07-02T13:11:56;19.20;99.90
16674;DHT22;8450;52.654;10.326;2023-07-02T13:14:21;19.30;99.90
16674;DHT22;8450;52.654;10.326;2023-07-02T13:16:47;19.40;99.90
16674;DHT22;8450;52.654;10.326;2023-07-02T13:19:13;19.40;99.90
16674;DHT22;8450;52.654;10.326;2023-07-02T13:21:38;19.80;99.90
16674;DHT22;8450;52.654;10.326;2023-07-02T13:24:04;20.10;99.90
16674;DHT22;8450;52.654;10.326;2023-07-02T13:26:30;19.70;99.90
16674;DHT22;8450;52.654;10.326;2023-07-02T13:28:56;19.50;99.90
16674;DHT22;8450;52.654;10.326;2023-07-02T13:31:21;19.40;99.90
16674;DHT22;8450;52.654;10.326;2023-07-02T13:33:47;19.50;99.90
16674;DHT22;8450;52.654;10.326;2023-07-02T13:36:16;19.90;99.90
16674;DHT22;8450;52.654;10.326;2023-07-02T13:38:41;20.60;99.90
16674;DHT22;8450;52.654;10.326;2023-07-02T13:41:07;21.30;99.90
16674;DHT22;8450;52.654;10.326;2023-07-02T13:43:32;21.20;99.90
16674;DHT22;8450;52.654;10.326;2023-07-02T13:45:58;21.20;99.90
16674;DHT22;8450;52.654;10.326;2023-07-02T13:48:24;21.40;99.90
16674;DHT22;8450;52.654;10.326;2023-07-02T13:50:49;20.90;99.90
16674;DHT22;8450;52.654;10.326;2023-07-02T13:53:15;20.20;99.90
16674;DHT22;8450;52.654;10.326;2023-07-02T13:55:41;20.00;99.90
16674;DHT22;8450;52.654;10.326;2023-07-02T13:58:07;20.00;99.90
16674;DHT22;8450;52.654;10.326;2023-07-02T14:00:32;19.90;99.90
16674;DHT22;8450;52.654;10.326;2023-07-02T14:02:58;19.80;99.90
16674;DHT22;8450;52.654;10.326;2023-07-02T14:05:24;19.80;99.90
16674;DHT22;8450;52.654;10.326;2023-07-02T14:07:50;19.80;99.90
16674;DHT22;8450;52.654;10.326;2023-07-02T14:10:16;19.70;99.90
16674;DHT22;8450;52.654;10.326;2023-07-02T14:12:42;19.70;99.90
16674;DHT22;8450;52.654;10.326;2023-07-02T14:15:09;19.70;99.90
16674;DHT22;8450;52.654;10.326;2023-07-02T14:17:35;19.50;99.90
16674;DHT22;8450;52.654;10.326;2023-07-02T14:20:01;19.90;99.90
16674;DHT22;8450;52.654;10.326;2023-07-02T14:22:27;20.20;99.90
16674;DHT22;8450;52.654;10.326;2023-07-02T14:24:52;20.00;99.90
16674;DHT22;8450;52.654;10.326;2023-07-02T14:27:18;20.20;99.90
16674;DHT22;8450;52.654;10.326;2023-07-02T14:29:43;20.30;99.90
16674;DHT22;8450;52.654;10.326;2023-07-02T14:32:09;20.10;99.90
16674;DHT22;8450;52.654;10.326;2023-07-02T14:34:35;20.10;99.90
16674;DHT22;8450;52.654;10.326;2023-07-02T14:37:02;20.40;99.90
16674;DHT22;8450;52.654;10.326;2023-07-02T14:39:28;20.30;99.90
16674;DHT22;8450;52.654;10.326;2023-07-02T14:41:53;20.20;99.90
16674;DHT22;8450;52.654;10.326;2023-07-02T14:44:19;20.00;99.90
16674;DHT22;8450;52.654;10.326;2023-07-02T14:46:45;20.20;99.90
16674;DHT22;8450;52.654;10.326;2023-07-02T14:49:10;20.60;99.90
16674;DHT22;8450;52.654;10.326;2023-07-02T14:51:36;20.50;99.90
16674;DHT22;8450;52.654;10.326;2023-07-02T14:54:01;20.30;99.90
16674;DHT22;8450;52.654;10.326;2023-07-02T14:56:29;20.40;99.90
16674;DHT22;8450;52.654;10.326;2023-07-02T14:58:55;20.20;99.90
16674;DHT22;8450;52.654;10.326;2023-07-02T15:01:21;20.50;99.90
16674;DHT22;8450;52.654;10.326;2023-07-02T15:03:47;20.30;99.90
16674;DHT22;8450;52.654;10.326;2023-07-02T15:06:16;20.20;99.90
16674;DHT22;8450;52.654;10.326;2023-07-02T15:08:42;20.10;99.90
16674;DHT22;8450;52.654;10.326;2023-07-02T15:11:10;20.00;99.90
16674;DHT22;8450;52.654;10.326;2023-07-02T15:13:36;19.80;99.90
16674;DHT22;8450;52.654;10.326;2023-07-02T15:16:03;19.80;99.90
16674;DHT22;8450;52.654;10.326;2023-07-02T15:18:29;20.20;99.90
16674;DHT22;8450;52.654;10.326;2023-07-02T15:20:58;20.90;99.90
16674;DHT22;8450;52.654;10.326;2023-07-02T15:23:24;20.80;99.90
16674;DHT22;8450;52.654;10.326;2023-07-02T15:25:55;20.40;99.90
16674;DHT22;8450;52.654;10.326;2023-07-02T15:28:22;20.40;99.90
16674;DHT22;8450;52.654;10.326;2023-07-02T15:30:56;20.10;99.90
16674;DHT22;8450;52.654;10.326;2023-07-02T15:33:23;19.90;99.90
16674;DHT22;8450;52.654;10.326;2023-07-02T15:35:49;20.00;99.90
16674;DHT22;8450;52.654;10.326;2023-07-02T15:38:16;20.00;99.90
16674;DHT22;8450;52.654;10.326;2023-07-02T15:40:42;20.00;99.90
16674;DHT22;8450;52.654;10.326;2023-07-02T15:43:08;19.90;99.90
16674;DHT22;8450;52.654;10.326;2023-07-02T15:45:34;19.90;99.90
16674;DHT22;8450;52.654;10.326;2023-07-02T15:48:00;20.00;99.90
16674;DHT22;8450;52.654;10.326;2023-07-02T15:50:26;20.60;99.90
16674;DHT22;8450;52.654;10.326;2023-07-02T15:52:51;21.20;99.90
16674;DHT22;8450;52.654;10.326;2023-07-02T15:55:21;21.20;99.90
16674;DHT22;8450;52.654;10.326;2023-07-02T15:57:47;20.90;99.90
16674;DHT22;8450;52.654;10.326;2023-07-02T16:00:14;20.40;99.90
16674;DHT22;8450;52.654;10.326;2023-07-02T16:02:42;20.00;99.90
16674;DHT22;8450;52.654;10.326;2023-07-02T16:05:11;19.90;99.90
16674;DHT22;8450;52.654;10.326;2023-07-02T16:07:37;19.90;99.90
16674;DHT22;8450;52.654;10.326;2023-07-02T16:10:04;19.90;99.90
16674;DHT22;8450;52.654;10.326;2023-07-02T16:12:30;19.70;99.90
16674;DHT22;8450;52.654;10.326;2023-07-02T16:14:56;19.60;99.90
16674;DHT22;8450;52.654;10.326;2023-07-02T16:17:22;19.60;99.90
16674;DHT22;8450;52.654;10.326;2023-07-02T16:19:47;19.60;99.90
16674;DHT22;8450;52.654;10.326;2023-07-02T16:22:13;19.70;99.90
16674;DHT22;8450;52.654;10.326;2023-07-02T16:27:54;20.60;99.90
16674;DHT22;8450;52.654;10.326;2023-07-02T16:30:20;20.40;99.90
16674;DHT22;8450;52.654;10.326;2023-07-02T16:32:46;20.20;99.90
16674;DHT22;8450;52.654;10.326;2023-07-02T16:35:11;20.60;99.90
16674;DHT22;8450;52.654;10.326;2023-07-02T16:37:37;20.90;99.90
16674;DHT22;8450;52.654;10.326;2023-07-02T16:40:04;20.90;99.90
16674;DHT22;8450;52.654;10.326;2023-07-02T16:42:30;20.60;99.90
16674;DHT22;8450;52.654;10.326;2023-07-02T16:44:56;20.40;99.90
16674;DHT22;8450;52.654;10.326;2023-07-02T16:47:22;20.70;99.90
16674;DHT22;8450;52.654;10.326;2023-07-02T16:49:47;21.10;99.90
16674;DHT22;8450;52.654;10.326;2023-07-02T16:52:14;21.30;99.90
16674;DHT22;8450;52.654;10.326;2023-07-02T16:54:41;21.30;99.90
16674;DHT22;8450;52.654;10.326;2023-07-02T16:57:08;21.10;99.90
16674;DHT22;8450;52.654;10.326;2023-07-02T16:59:34;20.80;99.90
16674;DHT22;8450;52.654;10.326;2023-07-02T17:02:04;20.60;99.90
16674;DHT22;8450;52.654;10.326;2023-07-02T17:04:33;20.30;99.90
16674;DHT22;8450;52.654;10.326;2023-07-02T17:06:59;20.20;99.90
16674;DHT22;8450;52.654;10.326;2023-07-02T17:09:37;20.30;99.90
16674;DHT22;8450;52.654;10.326;2023-07-02T17:12:07;20.70;99.90
16674;DHT22;8450;52.654;10.326;2023-07-02T17:14:35;20.60;99.90
16674;DHT22;8450;52.654;10.326;2023-07-02T17:17:08;20.40;99.90
16674;DHT22;8450;52.654;10.326;2023-07-02T17:19:37;20.50;99.90
16674;DHT22;8450;52.654;10.326;2023-07-02T17:22:07;20.40;99.90
16674;DHT22;8450;52.654;10.326;2023-07-02T17:24:35;20.40;99.90
16674;DHT22;8450;52.654;10.326;2023-07-02T17:27:01;20.10;99.90
16674;DHT22;8450;52.654;10.326;2023-07-02T17:29:27;20.00;99.90
16674;DHT22;8450;52.654;10.326;2023-07-02T17:31:58;20.20;99.90
16674;DHT22;8450;52.654;10.326;2023-07-02T17:34:25;20.30;99.90
16674;DHT22;8450;52.654;10.326;2023-07-02T17:37:00;20.20;99.90
16674;DHT22;8450;52.654;10.326;2023-07-02T17:39:27;20.10;99.90
16674;DHT22;8450;52.654;10.326;2023-07-02T17:41:54;20.00;99.90
16674;DHT22;8450;52.654;10.326;2023-07-02T17:44:22;19.90;99.90
16674;DHT22;8450;52.654;10.326;2023-07-02T17:46:54;19.80;99.90
16674;DHT22;8450;52.654;10.326;2023-07-02T17:49:22;19.90;99.90
16674;DHT22;8450;52.654;10.326;2023-07-02T17:51:48;19.70;99.90
16674;DHT22;8450;52.654;10.326;2023-07-02T17:54:15;19.60;99.90
16674;DHT22;8450;52.654;10.326;2023-07-02T17:56:41;19.70;99.90
16674;DHT22;8450;52.654;10.326;2023-07-02T17:59:06;19.50;99.90
16674;DHT22;8450;52.654;10.326;2023-07-02T18:01:46;19.40;99.90
16674;DHT22;8450;52.654;10.326;2023-07-02T18:04:13;19.40;99.90
16674;DHT22;8450;52.654;10.326;2023-07-02T18:06:43;19.40;99.90
16674;DHT22;8450;52.654;10.326;2023-07-02T18:09:09;19.30;99.90
16674;DHT22;8450;52.654;10.326;2023-07-02T18:11:35;19.20;99.90
16674;DHT22;8450;52.654;10.326;2023-07-02T18:14:02;19.10;99.90
16674;DHT22;8450;52.654;10.326;2023-07-02T18:16:29;19.20;99.90
16674;DHT22;8450;52.654;10.326;2023-07-02T18:18:55;19.10;99.90
16674;DHT22;8450;52.654;10.326;2023-07-02T18:21:20;19.10;99.90
16674;DHT22;8450;52.654;10.326;2023-07-02T18:23:46;19.10;99.90
16674;DHT22;8450;52.654;10.326;2023-07-02T18:26:11;18.90;99.90
16674;DHT22;8450;52.654;10.326;2023-07-02T18:28:37;18.80;99.90
